ADDS METAR Data INFO
IDs: Format: Raw Decoded Include TAF

Data at: 0354 UTC 18 Oct 2017

KSCD 180335Z AUTO 00000KT 10SM CLR 10/10 A3028 RMK AO2 T01010101
KSCD 180315Z AUTO 00000KT 10SM CLR 10/10 A3028 RMK AO2 T01010101
KSCD 180255Z AUTO 00000KT 10SM CLR 10/10 A3027 RMK AO2 T01020102
KSCD 180235Z AUTO 00000KT 7SM CLR 11/11 A3027 RMK AO2 T01070107
KSCD 180215Z AUTO 00000KT 10SM CLR 11/11 A3026 RMK AO2 T01100110
KSCD 180155Z AUTO 00000KT 10SM CLR 11/11 A3025 RMK AO2 T01060106
KSCD 180135Z AUTO 00000KT 10SM CLR 12/12 A3024 RMK AO2 T01150115
KSCD 180115Z AUTO 00000KT 10SM CLR 12/12 A3024 RMK AO2 T01180118
KSCD 180055Z AUTO 00000KT 10SM CLR 12/11 A3024 RMK AO2 T01220114
KSCD 180035Z AUTO 00000KT 10SM CLR 13/12 A3024 RMK AO2 T01270117
KSCD 180015Z AUTO 00000KT 10SM CLR 14/12 A3023 RMK AO2 T01360115
KSCD 172355Z AUTO 00000KT 10SM CLR 15/12 A3023 RMK AO2 T01480118 10222 20148
KSCD 172335Z AUTO 00000KT 10SM CLR 16/12 A3022 RMK AO2 T01630118
KSCD 172315Z AUTO 00000KT 10SM CLR 18/12 A3022 RMK AO2 T01770115
KSCD 172255Z AUTO 00000KT 10SM CLR 19/11 A3022 RMK AO2 T01910108
KSCD 172235Z AUTO 05003KT 10SM CLR 20/10 A3022 RMK AO2 T02020102
KSCD 172215Z AUTO 00000KT 10SM CLR 21/10 A3022 RMK AO2 T02080096
KSCD 172155Z AUTO 07003KT 10SM CLR 21/09 A3022 RMK AO2 T02130088
KSCD 172135Z AUTO 03003KT 10SM CLR 22/09 A3022 RMK AO2 T02150090
KSCD 172115Z AUTO 09005KT 10SM CLR 22/09 A3022 RMK AO2 T02170089
KSCD 172055Z AUTO 06005KT 10SM CLR 22/09 A3023 RMK AO2 T02160088
KSCD 172035Z AUTO 05005KT 10SM CLR 22/09 A3023 RMK AO2 T02170090
KSCD 172015Z AUTO 05007KT 10SM CLR 22/09 A3023 RMK AO2 T02180087
KSCD 171955Z AUTO 07005KT 10SM CLR 22/09 A3023 RMK AO2 T02210088
KSCD 171935Z AUTO 11005KT 10SM CLR 22/08 A3023 RMK AO2 T02160084
KSCD 171915Z AUTO 08005KT 10SM CLR 21/09 A3025 RMK AO2 T02140087
KSCD 171855Z AUTO 11006KT 7SM CLR 22/09 A3025 RMK AO2 T02150090
KSCD 171835Z AUTO 00000KT 10SM CLR 21/08 A3026 RMK AO2 T02060082
KSCD 171815Z AUTO 09005KT 10SM CLR 21/09 A3027 RMK AO2 T02070086
KSCD 171755Z AUTO 05006KT 10SM CLR 21/09 A3029 RMK AO2 T02050087 10207 20101
KSCD 171735Z AUTO 05007KT 020V080 10SM CLR 20/09 A3029 RMK AO2 T02040088
KSCD 171715Z AUTO 09005KT 10SM CLR 20/08 A3030 RMK AO2 T01960082
KSCD 171655Z AUTO 11006KT 10SM CLR 20/09 A3031 RMK AO2 T01960085
KSCD 171635Z AUTO 12009KT 10SM CLR 19/09 A3032 RMK AO2 T01920085
KSCD 171615Z AUTO 11007KT 10SM CLR 19/08 A3032 RMK AO2 T01880081
KSCD 171555Z AUTO 11008G14KT 10SM CLR 18/09 A3033 RMK AO2 T01790085
KSCD 171535Z AUTO 11010KT 10SM CLR 18/08 A3034 RMK AO2 T01760081
KSCD 171515Z AUTO 12007KT 10SM CLR 17/08 A3033 RMK AO2 T01700079
KSCD 171455Z AUTO 08009G15KT 10SM CLR 17/08 A3033 RMK AO2 T01670078
KSCD 171435Z AUTO 09007KT 10SM CLR 16/08 A3033 RMK AO2 T01620076
KSCD 171415Z AUTO 08009G16KT 10SM CLR 16/07 A3032 RMK AO2 T01550069
KSCD 171355Z AUTO 09008G16KT 10SM CLR 15/07 A3032 RMK AO2 T01500066
KSCD 171335Z AUTO 08009G14KT 10SM CLR 14/07 A3032 RMK AO2 T01360069
KSCD 171315Z AUTO 06006KT 10SM CLR 12/08 A3031 RMK AO2 T01210076
KSCD 171255Z AUTO 00000KT 10SM CLR 11/07 A3030 RMK AO2 T01110074
KSCD 171235Z AUTO 00000KT 10SM CLR 11/07 A3030 RMK AO2 T01050071
KSCD 171215Z AUTO 00000KT 10SM CLR 10/07 A3029 RMK AO2 T01020068
KSCD 171155Z AUTO 00000KT 10SM CLR 11/06 A3029 RMK AO2 T01070064 10126 20100
KSCD 171135Z AUTO 07004KT 10SM CLR 12/06 A3028 RMK AO2 T01210060
KSCD 171115Z AUTO 08006KT 10SM CLR 13/06 A3027 RMK AO2 T01250060
KSCD 171055Z AUTO 08007KT 10SM CLR 12/06 A3026 RMK AO2 T01230062
KSCD 171035Z AUTO 09008KT 10SM CLR 12/07 A3026 RMK AO2 T01240065
KSCD 171015Z AUTO 08008KT 10SM CLR 13/07 A3025 RMK AO2 T01250067
KSCD 170955Z AUTO 08003KT 10SM CLR 12/07 A3024 RMK AO2 T01150071
KSCD 170935Z AUTO 00000KT 10SM CLR 11/08 A3024 RMK AO2 T01070075
KSCD 170915Z AUTO 04003KT 10SM CLR 10/08 A3023 RMK AO2 T01030077
KSCD 170855Z AUTO 00000KT 10SM CLR 10/08 A3023 RMK AO2 T01040080
KSCD 170835Z AUTO 00000KT 10SM CLR 10/08 A3022 RMK AO2 T01010081
KSCD 170815Z AUTO 04003KT 10SM CLR 10/08 A3022 RMK AO2 T01030082
KSCD 170755Z AUTO 00000KT 10SM CLR 11/08 A3022 RMK AO2 T01060083
KSCD 170735Z AUTO 00000KT 10SM CLR 11/09 A3022 RMK AO2 T01100085
KSCD 170715Z AUTO 05003KT 10SM CLR 11/09 A3022 RMK AO2 T01100086
KSCD 170655Z AUTO 03003KT 10SM CLR 11/09 A3022 RMK AO2 T01120087
KSCD 170630Z AUTO 05004KT 10SM CLR 11/09 A3022 RMK AO2 T01140090
KSCD 170615Z AUTO 05005KT 10SM CLR 12/09 A3022 RMK AO2 T01170090
KSCD 170555Z AUTO 00000KT 10SM CLR 12/09 A3022 RMK AO2 T01200091 10171 20119 402080119
KSCD 170535Z AUTO 00000KT 10SM CLR 12/09 A3022 RMK AO2 T01200090
KSCD 170515Z AUTO 05003KT 10SM CLR 12/09 A3022 RMK AO2 T01220091
KSCD 170455Z AUTO 06006KT 10SM CLR 12/09 A3022 RMK AO2 T01220091
KSCD 170435Z AUTO 05005KT 10SM CLR 13/09 A3022 RMK AO2 T01250092
KSCD 170415Z AUTO 06005KT 10SM CLR 13/09 A3022 RMK AO2 T01270092
KSCD 170355Z AUTO 06003KT 10SM CLR 13/09 A3022 RMK AO2 T01290092
KSCD 170335Z AUTO 07004KT 10SM CLR 13/09 A3023 RMK AO2 T01310092
KSCD 170315Z AUTO 06003KT 10SM CLR 13/09 A3022 RMK AO2 T01310094
KSCD 170255Z AUTO 07003KT 10SM CLR 14/10 A3022 RMK AO2 T01360095
KSCD 170235Z AUTO 06005KT 10SM CLR 14/10 A3021 RMK AO2 T01390095
KSCD 170215Z AUTO 04004KT 10SM CLR 14/09 A3021 RMK AO2 T01440093
KSCD 170155Z AUTO 05005KT 10SM CLR 15/10 A3020 RMK AO2 T01470095
KSCD 170135Z AUTO 04003KT 10SM CLR 15/10 A3020 RMK AO2 T01500095
KSCD 170115Z AUTO 00000KT 10SM CLR 15/10 A3020 RMK AO2 T01540095
KSCD 170055Z AUTO 02004KT 10SM CLR 16/10 A3019 RMK AO2 T01570095
KSCD 170035Z AUTO 36005KT 10SM CLR 17/09 A3018 RMK AO2 T01650090
KSCD 170015Z AUTO 36003KT 10SM CLR 17/09 A3017 RMK AO2 T01680090
KSCD 162355Z AUTO 04003KT 10SM CLR 17/09 A3016 RMK AO2 T01710089 10208 20171
KSCD 162335Z AUTO 03003KT 10SM CLR 17/10 A3015 RMK AO2 T01710095
KSCD 162315Z AUTO 01004KT 10SM CLR 18/09 A3015 RMK AO2 T01750094
KSCD 162255Z AUTO 00000KT 10SM CLR 18/10 A3015 RMK AO2 T01810095
KSCD 162235Z AUTO 02004KT 10SM CLR 19/10 A3014 RMK AO2 T01880095
KSCD 162215Z AUTO 03004KT 10SM CLR 19/10 A3014 RMK AO2 T01940101
KSCD 162200Z AUTO 00000KT 10SM CLR 20/10 A3013 RMK AO2 T01950101
KSCD 162135Z AUTO 02005KT 10SM CLR 20/10 A3013 RMK AO2 T01980096
KSCD 162115Z AUTO 02007KT 340V060 10SM CLR 20/10 A3013 RMK AO2 T02000099
KSCD 162055Z AUTO 03004KT 10SM CLR 20/10 A3013 RMK AO2 T02020098
KSCD 162035Z AUTO 00000KT 10SM CLR 21/10 A3013 RMK AO2 T02050102
KSCD 162015Z AUTO 01004KT 10SM CLR 21/10 A3014 RMK AO2 T02060101
KSCD 161955Z AUTO 35007KT 320V050 10SM CLR 20/10 A3014 RMK AO2 T02020100
KSCD 161935Z AUTO 02006G16KT 10SM CLR 20/10 A3014 RMK AO2 T02010104
KSCD 161915Z AUTO 35007KT 310V040 10SM CLR 20/11 A3014 RMK AO2 T01960107
KSCD 161855Z AUTO 35006G14KT 10SM CLR 19/10 A3014 RMK AO2 T01920100
KSCD 161835Z AUTO 02005KT 10SM CLR 19/10 A3015 RMK AO2 T01860096
KSCD 161815Z AUTO 36008G15KT 310V040 10SM CLR 19/10 A3017 RMK AO2 T01850096
KSCD 161755Z AUTO 02008KT 330V050 10SM CLR 18/11 A3018 RMK AO2 T01830111 10183 20128
KSCD 161735Z AUTO 02006KT 10SM CLR 18/10 A3019 RMK AO2 T01760102
KSCD 161715Z AUTO 36006KT 10SM CLR 17/11 A3019 RMK AO2 T01740109
KSCD 161655Z AUTO 02005KT 10SM CLR 17/11 A3020 RMK AO2 T01660111
KSCD 161635Z AUTO 00000KT 10SM SCT021 16/11 A3021 RMK AO2 T01620114
KSCD 161615Z AUTO 36005KT 10SM BKN021 16/12 A3021 RMK AO2 T01620116
KSCD 161555Z AUTO 35004KT 10SM OVC019 14/11 A3022 RMK AO2 T01430107